createdAt,value
2022-12-27T00:04:43.768Z,15.2
2022-12-27T00:09:35.211Z,15.2
2022-12-27T00:14:46.417Z,15.2
2022-12-27T00:20:11.534Z,15.3
2022-12-27T00:25:34.903Z,15.2
2022-12-27T00:30:40.948Z,15.2
2022-12-27T00:35:47.868Z,15.3
2022-12-27T00:40:55.671Z,15.2
2022-12-27T00:46:17.424Z,15.2
2022-12-27T00:51:39.738Z,15.3
2022-12-27T00:56:46.417Z,15.2
2022-12-27T01:01:54.143Z,15.3
2022-12-27T01:06:46.171Z,15.3
2022-12-27T01:11:52.920Z,15.3
2022-12-27T01:17:15.093Z,15.2
2022-12-27T01:22:37.630Z,15.3
2022-12-27T01:27:44.741Z,15.3
2022-12-27T01:33:07.177Z,15.2
2022-12-27T01:38:30.300Z,15.3
2022-12-27T01:43:52.784Z,15.3
2022-12-27T01:48:59.408Z,15.1
2022-12-27T01:54:06.371Z,15.2
2022-12-27T01:59:13.208Z,15.2
2022-12-27T02:04:36.905Z,15.1
2022-12-27T02:09:59.522Z,15.1
2022-12-27T02:15:22.189Z,15.2
2022-12-27T02:20:44.872Z,15.1
2022-12-27T02:26:12.181Z,15
2022-12-27T02:31:35.410Z,15.1
2022-12-27T02:36:57.718Z,15.1
2022-12-27T02:42:05.159Z,15.1
2022-12-27T02:47:29.921Z,15.1
2022-12-27T02:52:52.759Z,15.1
2022-12-27T02:58:15.292Z,15.1
2022-12-27T03:03:44.162Z,15.1
2022-12-27T03:09:06.969Z,15.1
2022-12-27T03:14:13.625Z,15.1
2022-12-27T03:19:42.086Z,15.1
2022-12-27T03:25:03.901Z,15.1
2022-12-27T03:30:26.503Z,15.1
2022-12-27T03:35:34.011Z,15
2022-12-27T03:40:56.719Z,15.1
2022-12-27T03:46:04.509Z,15.1
2022-12-27T03:51:27.386Z,15.1
2022-12-27T03:56:55.233Z,15.1
2022-12-27T04:02:03.237Z,15.1
2022-12-27T04:07:11.668Z,15.1
2022-12-27T04:12:33.519Z,15.1
2022-12-27T04:17:56.430Z,15.1
2022-12-27T04:23:03.556Z,15.1
2022-12-27T04:28:09.662Z,15
2022-12-27T04:33:32.906Z,15
2022-12-27T04:38:40.610Z,15.1
2022-12-27T04:44:02.475Z,15.1
2022-12-27T04:49:27.318Z,15.1
2022-12-27T04:54:50.442Z,15.1
2022-12-27T04:59:57.647Z,15.1
2022-12-27T05:05:26.775Z,15
2022-12-27T05:10:33.626Z,15.1
2022-12-27T05:15:56.942Z,15.1
2022-12-27T05:21:19.716Z,15
2022-12-27T05:26:28.230Z,14.9
2022-12-27T05:31:50.184Z,15
2022-12-27T05:37:18.846Z,15
2022-12-27T05:42:44.834Z,15
2022-12-27T05:48:06.912Z,15.1
2022-12-27T05:53:32.745Z,15.1
2022-12-27T05:58:55.598Z,15
2022-12-27T06:04:19.323Z,15
2022-12-27T06:09:41.378Z,15
2022-12-27T06:15:04.219Z,14.9
2022-12-27T06:20:31.780Z,14.9
2022-12-27T06:25:54.385Z,15
2022-12-27T06:31:17.170Z,14.9
2022-12-27T06:36:39.927Z,14.9
2022-12-27T06:41:47.595Z,14.9
2022-12-27T06:46:55.403Z,14.9
2022-12-27T06:52:18.985Z,14.9
2022-12-27T06:57:41.711Z,14.9
2022-12-27T07:03:06.003Z,15
2022-12-27T07:08:28.824Z,15
2022-12-27T07:13:51.316Z,15
2022-12-27T07:19:14.131Z,15
2022-12-27T07:24:41.307Z,15.1
2022-12-27T07:30:04.082Z,14.9
2022-12-27T07:35:27.468Z,15
2022-12-27T07:40:52.833Z,14.9
2022-12-27T07:46:20.179Z,14.9
2022-12-27T07:51:49.417Z,14.9
2022-12-27T07:57:17.101Z,15
2022-12-27T08:02:40.686Z,14.9
2022-12-27T08:08:03.789Z,14.9
2022-12-27T08:13:11.114Z,15
2022-12-27T08:18:18.256Z,15
2022-12-27T08:23:41.624Z,14.9
2022-12-27T08:29:10.095Z,14.9
2022-12-27T08:34:17.838Z,15.1
2022-12-27T08:40:53.945Z,15.1
2022-12-27T08:46:17.043Z,15.1
2022-12-27T08:51:55.298Z,15.1
2022-12-27T08:57:19.401Z,14.9
2022-12-27T09:02:45.362Z,15
2022-12-27T09:07:57.008Z,15.1
2022-12-27T09:13:19.769Z,15.1
2022-12-27T09:18:41.843Z,14.9
2022-12-27T09:23:49.101Z,14.7
2022-12-27T09:29:12.636Z,14.5
2022-12-27T09:34:38.493Z,14.4
2022-12-27T09:39:50.892Z,14.8
2022-12-27T09:46:26.724Z,15
2022-12-27T09:51:54.189Z,14.9
2022-12-27T09:57:54.911Z,14.8
2022-12-27T10:03:24.421Z,14.7
2022-12-27T10:09:33.966Z,14.8
2022-12-27T10:15:01.438Z,14.9
2022-12-27T10:20:25.372Z,14.9
2022-12-27T10:25:38.504Z,14.8
2022-12-27T10:31:01.692Z,14.7
2022-12-27T10:36:26.160Z,14.8
2022-12-27T10:41:48.663Z,14.9
2022-12-27T10:47:11.315Z,14.8
2022-12-27T10:53:14.461Z,14.8
2022-12-27T10:58:36.858Z,14.6
2022-12-27T11:04:06.711Z,14.8
2022-12-27T11:09:29.043Z,14.8
2022-12-27T11:14:56.224Z,14.8
2022-12-27T11:20:24.957Z,14.7
2022-12-27T11:25:55.370Z,14.7
2022-12-27T11:31:22.008Z,14.8
2022-12-27T11:36:46.375Z,14.9
2022-12-27T11:42:11.207Z,14.8
2022-12-27T11:47:18.644Z,14.8
2022-12-27T11:52:32.433Z,14.8
2022-12-27T11:57:55.383Z,14.9
2022-12-27T12:03:21.313Z,14.9
2022-12-27T12:08:49.460Z,14.9
2022-12-27T12:14:12.564Z,14.8
2022-12-27T12:19:19.410Z,14.8
2022-12-27T12:24:45.169Z,14.9
2022-12-27T12:30:46.048Z,15
2022-12-27T12:36:08.708Z,15
2022-12-27T12:41:31.508Z,14.9
2022-12-27T12:46:56.734Z,14.9
2022-12-27T12:52:11.077Z,15
2022-12-27T12:57:37.458Z,15.1
2022-12-27T13:03:02.014Z,15.1
2022-12-27T13:08:30.904Z,15
2022-12-27T13:14:00.528Z,14.9
2022-12-27T13:19:08.241Z,15
2022-12-27T13:24:30.893Z,15.1
2022-12-27T13:29:53.630Z,15.2
2022-12-27T13:35:20.136Z,15.1
2022-12-27T13:40:43.297Z,15
2022-12-27T13:46:06.181Z,15.1
2022-12-27T13:51:32.078Z,15.1
2022-12-27T13:57:30.138Z,15.1
2022-12-27T14:02:55.800Z,15.1
2022-12-27T14:08:21.227Z,15.1
2022-12-27T14:13:32.696Z,15.3
2022-12-27T14:18:58.376Z,15.4
2022-12-27T14:24:21.392Z,15.2
2022-12-27T14:29:50.741Z,15.1
2022-12-27T14:35:16.383Z,15.2
2022-12-27T14:40:38.920Z,15.3
2022-12-27T14:45:46.074Z,15.3
2022-12-27T14:51:26.075Z,15.3
2022-12-27T14:57:08.723Z,15.1
2022-12-27T15:02:38.805Z,15.1
2022-12-27T15:08:09.307Z,15.3
2022-12-27T15:13:38.456Z,15.3
2022-12-27T15:19:03.642Z,15.3
2022-12-27T15:24:30.865Z,15.2
2022-12-27T15:29:54.452Z,15.2
2022-12-27T15:35:24.190Z,15.3
2022-12-27T15:40:52.621Z,15.3
2022-12-27T15:46:21.217Z,15.3
2022-12-27T15:51:43.158Z,15.2
2022-12-27T15:57:09.195Z,15.3
2022-12-27T16:02:34.958Z,15.4
2022-12-27T16:07:18.790Z,15.3
2022-12-27T16:12:26.732Z,15.3
2022-12-27T16:17:23.069Z,15.3
2022-12-27T16:22:30.215Z,15.3
2022-12-27T16:27:58.700Z,15.4
2022-12-27T16:33:27.038Z,15.4
2022-12-27T16:38:53.259Z,15.3
2022-12-27T16:44:16.545Z,15.3
2022-12-27T16:49:28.878Z,15.3
2022-12-27T16:54:53.397Z,15.4
2022-12-27T17:00:20.228Z,15.4
2022-12-27T17:06:22.026Z,15.4
2022-12-27T17:11:53.477Z,15.3
2022-12-27T17:17:16.846Z,15.4
2022-12-27T17:22:43.868Z,15.4
2022-12-27T17:27:50.765Z,15.4
2022-12-27T17:33:19.911Z,15.3
2022-12-27T17:38:02.908Z,15.3
2022-12-27T17:43:14.375Z,15.4
2022-12-27T17:48:41.444Z,15.4
2022-12-27T17:53:49.927Z,15.4
2022-12-27T17:58:59.682Z,15.3
2022-12-27T18:04:24.435Z,15.3
2022-12-27T18:09:54.181Z,15.4
2022-12-27T18:15:05.117Z,15.4
2022-12-27T18:20:03.003Z,15.4
2022-12-27T18:25:25.630Z,15.4
2022-12-27T18:30:48.813Z,15.3
2022-12-27T18:36:15.992Z,15.4
2022-12-27T18:41:38.647Z,15.4
2022-12-27T18:47:01.635Z,15.4
2022-12-27T18:52:24.642Z,15.3
2022-12-27T18:57:47.196Z,15.4
2022-12-27T19:02:56.804Z,15.5
2022-12-27T19:08:25.242Z,15.4
2022-12-27T19:13:51.360Z,15.4
2022-12-27T19:19:13.470Z,15.2
2022-12-27T19:24:36.420Z,15.3
2022-12-27T19:29:59.451Z,15.4
2022-12-27T19:35:22.749Z,15.4
2022-12-27T19:40:46.780Z,15.4
2022-12-27T19:46:12.897Z,15.4
2022-12-27T19:52:04.375Z,15.4
2022-12-27T19:57:36.472Z,15.4
2022-12-27T20:03:02.714Z,15.3
2022-12-27T20:09:20.275Z,15.3
2022-12-27T20:14:27.694Z,15.3
2022-12-27T20:19:55.599Z,15.4
2022-12-27T20:25:18.017Z,15.3
2022-12-27T20:30:40.953Z,15.3
2022-12-27T20:35:57.017Z,15.2
2022-12-27T20:41:19.592Z,15.3
2022-12-27T20:46:42.939Z,15.4
2022-12-27T20:52:05.877Z,15.4
2022-12-27T20:57:33.571Z,15.3
2022-12-27T21:03:06.172Z,15.3
2022-12-27T21:08:29.078Z,15.4
2022-12-27T21:13:56.405Z,15.4
2022-12-27T21:19:21.066Z,15.3
2022-12-27T21:24:47.991Z,15.2
2022-12-27T21:30:16.779Z,15.3
2022-12-27T21:35:39.742Z,15.4
2022-12-27T21:40:51.107Z,15.4
2022-12-27T21:46:13.045Z,15.4
2022-12-27T21:51:45.117Z,15.4
2022-12-27T21:56:52.421Z,15.5
2022-12-27T22:02:27.627Z,15.6
2022-12-27T22:07:55.559Z,15.5
2022-12-27T22:13:18.010Z,15.5
2022-12-27T22:18:30.755Z,15.6
2022-12-27T22:23:53.686Z,15.6
2022-12-27T22:29:02.023Z,15.6
2022-12-27T22:34:09.727Z,15.6
2022-12-27T22:39:32.871Z,15.5
2022-12-27T22:45:10.661Z,15.6
2022-12-27T22:51:02.291Z,15.6
2022-12-27T22:57:03.644Z,15.5
2022-12-27T23:02:27.232Z,15.6
2022-12-27T23:08:03.773Z,15.6
2022-12-27T23:13:35.139Z,15.6
2022-12-27T23:18:42.392Z,15.6
2022-12-27T23:24:27.952Z,15.5
2022-12-27T23:29:50.842Z,15.5
2022-12-27T23:35:36.536Z,15.4
2022-12-27T23:40:43.585Z,15.4
2022-12-27T23:46:33.590Z,15.5
2022-12-27T23:51:12.433Z,15.4
2022-12-27T23:56:34.759Z,15.6
